Asbury Park, New Jersey
Current Conditions -  °F | °C
As of 1:15 PM on Friday 21 Nov 2014 (Local Time) from KBLM Reporting Station
Clear Clear  
Wind Chill: 27°   Ceiling: Unl
Heat Index: 36°   Visibility: 10mi
Dew Point:   Wind: 14mph
Humidity: 33%   Direction: 300°WNW
Pressure: 30.31"   Gusts: 20mph
Location:  40.22°N, 74.01°W
Report Text: KBLM 211815Z AUTO 30012G17KT 10SM CLR 02/M13 A3031 RMK AO1
Loading
Personal Weather Stations






























Interactive Weather Map New forecast layout! Learn more

10-Day Weather Forecast

Advertisements
Track Severe Weather on mobile